Time,TemperatureF,DewpointF,PressureIn,WindDirection,WindDirectionDegrees,WindSpeedMPH,WindSpeedGustMPH,Humidity,HourlyPrecipIn,Conditions,Clouds,dailyrainin,SoftwareType,DateUTC
2013-01-14 00:07:00,42.5,42.0,30.01,ESE,120,0.0,0.0,99,0.00,,,0.00,weatherlink.com 1.10,2013-01-14 05:07:00,
2013-01-14 00:22:00,42.5,42.0,30.01,ESE,120,0.0,0.0,99,0.00,,,0.00,weatherlink.com 1.10,2013-01-14 05:22:00,
2013-01-14 00:37:00,42.9,43.0,30.01,ESE,120,0.0,0.0,99,0.00,,,0.00,weatherlink.com 1.10,2013-01-14 05:37:00,
2013-01-14 00:52:00,43.2,43.0,30.01,ESE,120,0.0,0.0,100,0.00,,,0.00,weatherlink.com 1.10,2013-01-14 05:52:00,
2013-01-14 01:07:00,43.0,43.0,30.02,ESE,120,0.0,0.0,100,0.00,,,0.00,weatherlink.com 1.10,2013-01-14 06:07:00,
2013-01-14 01:22:00,43.3,43.0,30.01,ESE,120,0.0,0.0,100,0.00,,,0.00,weatherlink.com 1.10,2013-01-14 06:22:00,
2013-01-14 01:37:00,43.1,43.0,30.01,ESE,120,0.0,0.0,100,0.00,,,0.00,weatherlink.com 1.10,2013-01-14 06:37:00,
2013-01-14 01:52:00,43.1,43.0,30.02,ESE,120,0.0,0.0,100,0.00,,,0.00,weatherlink.com 1.10,2013-01-14 06:52:00,
2013-01-14 02:07:00,43.1,43.0,30.02,ESE,120,0.0,0.0,100,0.00,,,0.00,weatherlink.com 1.10,2013-01-14 07:07:00,
2013-01-14 02:22:00,43.1,43.0,30.01,ESE,107,0.0,0.0,100,0.00,,,0.00,weatherlink.com 1.10,2013-01-14 07:22:00,
2013-01-14 02:37:00,43.2,43.0,30.02,ESE,108,0.0,0.0,100,0.00,,,0.00,weatherlink.com 1.10,2013-01-14 07:37:00,
2013-01-14 02:52:00,43.3,43.0,30.02,ESE,107,0.0,0.0,100,0.00,,,0.00,weatherlink.com 1.10,2013-01-14 07:52:00,
2013-01-14 03:07:00,43.2,43.0,30.00,ESE,107,0.0,0.0,100,0.00,,,0.00,weatherlink.com 1.10,2013-01-14 08:07:00,
2013-01-14 03:22:00,43.2,43.0,30.00,ESE,107,0.0,0.0,100,0.00,,,0.00,weatherlink.com 1.10,2013-01-14 08:22:00,
2013-01-14 03:37:00,43.2,43.0,30.00,ESE,106,0.0,0.0,100,0.00,,,0.00,weatherlink.com 1.10,2013-01-14 08:37:00,
2013-01-14 03:52:00,43.2,43.0,30.00,ESE,106,0.0,0.0,100,0.00,,,0.00,weatherlink.com 1.10,2013-01-14 08:52:00,
2013-01-14 04:07:00,43.2,43.0,30.00,ESE,105,0.0,0.0,100,0.00,,,0.00,weatherlink.com 1.10,2013-01-14 09:07:00,
2013-01-14 04:22:00,43.3,43.0,30.00,ESE,107,0.0,0.0,100,0.00,,,0.00,weatherlink.com 1.10,2013-01-14 09:22:00,
2013-01-14 04:37:00,43.3,43.0,30.00,ESE,106,0.0,0.0,100,0.00,,,0.00,weatherlink.com 1.10,2013-01-14 09:37:00,
2013-01-14 04:52:00,43.2,43.0,29.99,ESE,106,0.0,0.0,100,0.00,,,0.00,weatherlink.com 1.10,2013-01-14 09:52:00,
2013-01-14 05:07:00,43.0,43.0,29.99,ESE,107,0.0,0.0,100,0.00,,,0.00,weatherlink.com 1.10,2013-01-14 10:07:00,
2013-01-14 05:22:00,43.1,43.0,29.98,ESE,107,0.0,0.0,100,0.00,,,0.00,weatherlink.com 1.10,2013-01-14 10:22:00,
2013-01-14 05:37:00,43.2,43.0,29.98,ESE,107,0.0,0.0,100,0.00,,,0.00,weatherlink.com 1.10,2013-01-14 10:37:00,
2013-01-14 05:52:00,43.0,43.0,29.96,ESE,107,0.0,0.0,100,0.00,,,0.00,weatherlink.com 1.10,2013-01-14 10:52:00,
2013-01-14 06:07:00,42.9,43.0,29.94,ESE,117,1.0,3.0,100,0.00,,,0.00,weatherlink.com 1.10,2013-01-14 11:07:00,
2013-01-14 06:22:00,44.7,45.0,29.88,NE,49,1.0,5.0,100,0.01,,,0.01,weatherlink.com 1.10,2013-01-14 11:22:00,
2013-01-14 06:37:00,47.5,48.0,29.98,ESE,109,2.0,7.0,100,0.01,,,0.01,weatherlink.com 1.10,2013-01-14 11:37:00,
2013-01-14 06:52:00,47.5,48.0,29.98,West,277,1.0,4.0,100,0.01,,,0.01,weatherlink.com 1.10,2013-01-14 11:52:00,
2013-01-14 07:07:00,47.6,48.0,30.00,ESE,108,3.0,3.0,100,0.02,,,0.02,weatherlink.com 1.10,2013-01-14 12:07:00,
2013-01-14 07:22:00,47.8,48.0,29.99,NW,309,0.0,3.0,100,0.01,,,0.02,weatherlink.com 1.10,2013-01-14 12:22:00,
2013-01-14 07:37:00,47.5,48.0,30.01,ESE,115,2.0,3.0,100,0.01,,,0.02,weatherlink.com 1.10,2013-01-14 12:37:00,
2013-01-14 07:52:00,47.0,47.0,30.02,SE,130,0.0,0.0,100,0.01,,,0.02,weatherlink.com 1.10,2013-01-14 12:52:00,
2013-01-14 08:07:00,47.1,47.0,30.02,East,99,0.0,0.0,100,0.00,,,0.02,weatherlink.com 1.10,2013-01-14 13:07:00,
2013-01-14 08:22:00,46.7,47.0,30.02,SE,126,0.0,1.0,100,0.00,,,0.02,weatherlink.com 1.10,2013-01-14 13:22:00,
2013-01-14 08:37:00,46.8,47.0,30.03,East,94,0.0,0.0,100,0.00,,,0.02,weatherlink.com 1.10,2013-01-14 13:37:00,
2013-01-14 08:52:00,46.9,47.0,30.03,East,94,0.0,0.0,100,0.00,,,0.02,weatherlink.com 1.10,2013-01-14 13:52:00,
2013-01-14 09:07:00,47.0,47.0,30.02,East,93,0.0,0.0,100,0.00,,,0.02,weatherlink.com 1.10,2013-01-14 14:07:00,
2013-01-14 09:22:00,47.1,47.0,30.03,ESE,110,0.0,0.0,100,0.00,,,0.02,weatherlink.com 1.10,2013-01-14 14:22:00,
2013-01-14 09:37:00,47.9,48.0,30.04,SW,236,0.0,0.0,100,0.00,,,0.02,weatherlink.com 1.10,2013-01-14 14:37:00,
2013-01-14 09:52:00,49.5,50.0,30.05,NNW,347,0.0,1.0,100,0.00,,,0.02,weatherlink.com 1.10,2013-01-14 14:52:00,
2013-01-14 10:07:00,50.4,50.0,30.05,West,276,0.0,5.0,100,0.00,,,0.02,weatherlink.com 1.10,2013-01-14 15:07:00,
2013-01-14 10:23:00,50.7,51.0,30.06,WNW,285,2.0,4.0,100,0.00,,,0.02,weatherlink.com 1.10,2013-01-14 15:23:00,
2013-01-14 10:38:00,51.1,51.0,30.06,NW,309,3.0,4.0,100,0.00,,,0.02,weatherlink.com 1.10,2013-01-14 15:38:00,
2013-01-14 10:53:00,51.1,51.0,30.05,WNW,290,0.0,3.0,100,0.00,,,0.02,weatherlink.com 1.10,2013-01-14 15:53:00,
2013-01-14 11:09:00,51.5,52.0,30.04,West,270,1.0,3.0,100,0.00,,,0.02,weatherlink.com 1.10,2013-01-14 16:09:00,
2013-01-14 11:23:00,52.1,52.0,30.04,WNW,302,0.0,4.0,99,0.00,,,0.02,weatherlink.com 1.10,2013-01-14 16:23:00,
2013-01-14 11:38:00,52.6,52.0,30.05,NW,307,1.0,4.0,97,0.00,,,0.02,weatherlink.com 1.10,2013-01-14 16:38:00,
2013-01-14 11:53:00,52.9,52.0,30.05,WNW,292,1.0,6.0,95,0.00,,,0.02,weatherlink.com 1.10,2013-01-14 16:53:00,
2013-01-14 12:08:00,53.0,51.0,30.06,WNW,285,1.0,4.0,94,0.00,,,0.02,weatherlink.com 1.10,2013-01-14 17:08:00,
2013-01-14 12:23:00,52.9,51.0,30.07,WNW,291,3.0,6.0,94,0.00,,,0.02,weatherlink.com 1.10,2013-01-14 17:23:00,
2013-01-14 12:38:00,52.8,50.0,30.06,WNW,301,5.0,10.0,91,0.00,,,0.02,weatherlink.com 1.10,2013-01-14 17:38:00,
2013-01-14 12:53:00,53.0,50.0,30.07,West,280,3.0,7.0,89,0.00,,,0.02,weatherlink.com 1.10,2013-01-14 17:53:00,
2013-01-14 13:08:00,53.2,50.0,30.07,NW,304,3.0,8.0,87,0.00,,,0.02,weatherlink.com 1.10,2013-01-14 18:08:00,
2013-01-14 13:23:00,53.0,48.0,30.07,WNW,302,3.0,12.0,84,0.00,,,0.02,weatherlink.com 1.10,2013-01-14 18:23:00,
2013-01-14 13:38:00,52.0,46.0,30.09,WNW,300,8.0,11.0,80,0.00,,,0.02,weatherlink.com 1.10,2013-01-14 18:38:00,
2013-01-14 13:53:00,51.7,45.0,30.09,WNW,302,3.0,10.0,79,0.00,,,0.02,weatherlink.com 1.10,2013-01-14 18:53:00,
2013-01-14 14:08:00,51.6,45.0,30.10,NW,321,3.0,9.0,77,0.00,,,0.02,weatherlink.com 1.10,2013-01-14 19:08:00,
2013-01-14 14:23:00,51.4,44.0,30.10,ENE,73,1.0,6.0,77,0.00,,,0.02,weatherlink.com 1.10,2013-01-14 19:23:00,
2013-01-14 14:53:00,50.9,43.0,30.11,WNW,297,5.0,9.0,73,0.00,,,0.02,weatherlink.com 1.10,2013-01-14 19:53:00,
2013-01-14 15:08:00,50.4,41.0,30.13,WNW,294,4.0,9.0,71,0.00,,,0.02,weatherlink.com 1.10,2013-01-14 20:08:00,
2013-01-14 15:23:00,49.6,40.0,30.13,WNW,297,3.0,9.0,70,0.00,,,0.02,weatherlink.com 1.10,2013-01-14 20:23:00,
2013-01-14 15:38:00,49.2,39.0,30.12,WNW,297,3.0,9.0,69,0.00,,,0.02,weatherlink.com 1.10,2013-01-14 20:38:00,
2013-01-14 15:53:00,48.9,39.0,30.12,WNW,291,2.0,7.0,70,0.00,,,0.02,weatherlink.com 1.10,2013-01-14 20:53:00,
2013-01-14 16:08:00,48.1,39.0,30.15,WNW,288,2.0,5.0,70,0.00,,,0.02,weatherlink.com 1.10,2013-01-14 21:08:00,
2013-01-14 16:23:00,47.4,38.0,30.16,NE,43,2.0,10.0,70,0.00,,,0.02,weatherlink.com 1.10,2013-01-14 21:23:00,
2013-01-14 16:38:00,46.4,37.0,30.17,NW,304,4.0,7.0,69,0.00,,,0.02,weatherlink.com 1.10,2013-01-14 21:38:00,
2013-01-14 16:53:00,45.6,36.0,30.17,NW,321,1.0,8.0,69,0.00,,,0.02,weatherlink.com 1.10,2013-01-14 21:53:00,
2013-01-14 17:08:00,44.7,34.0,30.16,North,9,3.0,11.0,67,0.00,,,0.02,weatherlink.com 1.10,2013-01-14 22:08:00,
2013-01-14 17:38:00,43.5,33.0,30.17,NW,312,1.0,4.0,67,0.00,,,0.02,weatherlink.com 1.10,2013-01-14 22:38:00,
2013-01-14 17:53:00,43.6,33.0,30.17,WNW,287,5.0,9.0,66,0.00,,,0.02,weatherlink.com 1.10,2013-01-14 22:53:00,
2013-01-14 18:08:00,43.2,32.0,30.18,WNW,294,2.0,6.0,65,0.00,,,0.02,weatherlink.com 1.10,2013-01-14 23:08:00,
2013-01-14 18:23:00,42.8,31.0,30.18,NW,308,3.0,7.0,64,0.00,,,0.02,weatherlink.com 1.10,2013-01-14 23:23:00,
2013-01-14 18:38:00,42.4,32.0,30.20,WNW,301,1.0,5.0,66,0.00,,,0.02,weatherlink.com 1.10,2013-01-14 23:38:00,
2013-01-14 18:54:00,42.1,31.0,30.19,WSW,257,2.0,7.0,66,0.00,,,0.02,weatherlink.com 1.10,2013-01-14 23:54:00,
2013-01-14 19:09:00,41.8,32.0,30.21,NW,307,4.0,7.0,67,0.00,,,0.02,weatherlink.com 1.10,2013-01-15 00:09:00,
2013-01-14 19:24:00,41.5,31.0,30.22,NNW,329,6.0,8.0,67,0.00,,,0.02,weatherlink.com 1.10,2013-01-15 00:24:00,
2013-01-14 19:39:00,41.2,31.0,30.24,West,274,3.0,10.0,67,0.00,,,0.02,weatherlink.com 1.10,2013-01-15 00:39:00,
2013-01-14 19:54:00,40.9,30.0,30.24,NW,307,1.0,8.0,66,0.00,,,0.02,weatherlink.com 1.10,2013-01-15 00:54:00,
2013-01-14 20:09:00,40.6,30.0,30.26,West,277,3.0,7.0,67,0.00,,,0.02,weatherlink.com 1.10,2013-01-15 01:09:00,
2013-01-14 20:24:00,40.1,29.0,30.26,NNW,329,2.0,7.0,64,0.00,,,0.02,weatherlink.com 1.10,2013-01-15 01:24:00,
2013-01-14 20:39:00,39.4,29.0,30.27,NW,304,5.0,5.0,66,0.00,,,0.02,weatherlink.com 1.10,2013-01-15 01:39:00,
2013-01-14 20:54:00,39.1,27.0,30.27,NW,311,9.0,13.0,62,0.00,,,0.02,weatherlink.com 1.10,2013-01-15 01:54:00,
2013-01-14 21:09:00,38.5,28.0,30.27,NW,304,2.0,5.0,66,0.00,,,0.02,weatherlink.com 1.10,2013-01-15 02:09:00,
2013-01-14 21:24:00,37.7,29.0,30.26,WNW,300,0.0,3.0,70,0.00,,,0.02,weatherlink.com 1.10,2013-01-15 02:24:00,
2013-01-14 21:39:00,37.2,29.0,30.26,NW,308,1.0,2.0,73,0.00,,,0.02,weatherlink.com 1.10,2013-01-15 02:39:00,
2013-01-14 21:54:00,36.8,30.0,30.29,NW,311,5.0,5.0,75,0.00,,,0.02,weatherlink.com 1.10,2013-01-15 02:54:00,
2013-01-14 22:09:00,35.8,30.0,30.30,WNW,300,1.0,5.0,80,0.01,,,0.03,weatherlink.com 1.10,2013-01-15 03:09:00,
2013-01-14 22:24:00,35.3,30.0,30.29,NW,309,1.0,2.0,82,0.01,,,0.03,weatherlink.com 1.10,2013-01-15 03:24:00,
2013-01-14 22:39:00,35.5,29.0,30.29,WNW,300,2.0,5.0,78,0.01,,,0.03,weatherlink.com 1.10,2013-01-15 03:39:00,
2013-01-14 22:54:00,35.7,29.0,30.28,WNW,297,1.0,5.0,76,0.01,,,0.03,weatherlink.com 1.10,2013-01-15 03:54:00,
2013-01-14 23:09:00,35.7,29.0,30.28,NW,315,1.0,4.0,76,0.00,,,0.03,weatherlink.com 1.10,2013-01-15 04:09:00,
2013-01-14 23:24:00,35.5,28.0,30.28,WNW,298,2.0,5.0,75,0.00,,,0.03,weatherlink.com 1.10,2013-01-15 04:24:00,
2013-01-14 23:39:00,35.5,28.0,30.28,NW,315,2.0,4.0,75,0.00,,,0.03,weatherlink.com 1.10,2013-01-15 04:39:00,
2013-01-14 23:54:00,35.2,29.0,30.29,WNW,300,2.0,5.0,77,0.00,,,0.03,weatherlink.com 1.10,2013-01-15 04:54:00,